sensor_id;sensor_type;location;lat;lon;timestamp;temperature;humidity
34492;DHT22;20737;49.908;8.126;2022-11-15T00:01:29;7.60;99.90
34492;DHT22;20737;49.908;8.126;2022-11-15T00:03:55;7.60;99.90
34492;DHT22;20737;49.908;8.126;2022-11-15T00:06:23;7.60;99.90
34492;DHT22;20737;49.908;8.126;2022-11-15T00:08:50;7.60;99.90
34492;DHT22;20737;49.908;8.126;2022-11-15T00:11:17;7.70;99.90
34492;DHT22;20737;49.908;8.126;2022-11-15T00:13:44;7.70;99.90
34492;DHT22;20737;49.908;8.126;2022-11-15T00:16:10;7.70;99.90
34492;DHT22;20737;49.908;8.126;2022-11-15T00:18:37;7.70;99.90
34492;DHT22;20737;49.908;8.126;2022-11-15T00:21:06;7.70;99.90
34492;DHT22;20737;49.908;8.126;2022-11-15T00:23:34;7.70;99.90
34492;DHT22;20737;49.908;8.126;2022-11-15T00:26:01;7.70;99.90
34492;DHT22;20737;49.908;8.126;2022-11-15T00:28:28;7.60;99.90
34492;DHT22;20737;49.908;8.126;2022-11-15T00:31:00;7.70;99.90
34492;DHT22;20737;49.908;8.126;2022-11-15T00:33:27;7.70;99.90
34492;DHT22;20737;49.908;8.126;2022-11-15T00:35:53;7.70;99.90
34492;DHT22;20737;49.908;8.126;2022-11-15T00:38:25;7.70;99.90
34492;DHT22;20737;49.908;8.126;2022-11-15T00:40:53;7.60;99.90
34492;DHT22;20737;49.908;8.126;2022-11-15T00:43:20;7.60;99.90
34492;DHT22;20737;49.908;8.126;2022-11-15T00:45:46;7.60;99.90
34492;DHT22;20737;49.908;8.126;2022-11-15T00:48:13;7.50;99.90
34492;DHT22;20737;49.908;8.126;2022-11-15T00:50:40;7.50;99.90
34492;DHT22;20737;49.908;8.126;2022-11-15T00:53:07;7.60;99.90
34492;DHT22;20737;49.908;8.126;2022-11-15T00:55:33;7.60;99.90
34492;DHT22;20737;49.908;8.126;2022-11-15T00:58:01;7.50;99.90
34492;DHT22;20737;49.908;8.126;2022-11-15T01:00:28;7.60;99.90
34492;DHT22;20737;49.908;8.126;2022-11-15T01:02:55;7.60;99.90
34492;DHT22;20737;49.908;8.126;2022-11-15T01:05:22;7.60;99.90
34492;DHT22;20737;49.908;8.126;2022-11-15T01:07:51;7.60;99.90
34492;DHT22;20737;49.908;8.126;2022-11-15T01:10:18;7.70;99.90
34492;DHT22;20737;49.908;8.126;2022-11-15T01:12:45;7.70;99.90
34492;DHT22;20737;49.908;8.126;2022-11-15T01:15:13;7.70;99.90
34492;DHT22;20737;49.908;8.126;2022-11-15T01:17:40;7.70;99.90
34492;DHT22;20737;49.908;8.126;2022-11-15T01:20:07;7.70;99.90
34492;DHT22;20737;49.908;8.126;2022-11-15T01:22:34;7.70;99.90
34492;DHT22;20737;49.908;8.126;2022-11-15T01:25:01;7.70;99.90
34492;DHT22;20737;49.908;8.126;2022-11-15T01:27:28;7.70;99.90
34492;DHT22;20737;49.908;8.126;2022-11-15T01:29:55;7.70;99.90
34492;DHT22;20737;49.908;8.126;2022-11-15T01:32:23;7.80;99.90
34492;DHT22;20737;49.908;8.126;2022-11-15T01:34:49;7.80;99.90
34492;DHT22;20737;49.908;8.126;2022-11-15T01:37:16;7.70;99.90
34492;DHT22;20737;49.908;8.126;2022-11-15T01:39:43;7.80;99.90
34492;DHT22;20737;49.908;8.126;2022-11-15T01:42:12;7.80;99.90
34492;DHT22;20737;49.908;8.126;2022-11-15T01:44:44;7.80;99.90
34492;DHT22;20737;49.908;8.126;2022-11-15T01:47:14;7.80;99.90
34492;DHT22;20737;49.908;8.126;2022-11-15T01:49:49;7.90;99.90
34492;DHT22;20737;49.908;8.126;2022-11-15T01:52:19;7.90;99.90
34492;DHT22;20737;49.908;8.126;2022-11-15T01:54:47;7.90;99.90
34492;DHT22;20737;49.908;8.126;2022-11-15T01:57:14;7.90;99.90
34492;DHT22;20737;49.908;8.126;2022-11-15T01:59:43;7.90;99.90
34492;DHT22;20737;49.908;8.126;2022-11-15T02:02:11;7.80;99.90
34492;DHT22;20737;49.908;8.126;2022-11-15T02:04:42;7.80;99.90
34492;DHT22;20737;49.908;8.126;2022-11-15T02:07:11;7.80;99.90
34492;DHT22;20737;49.908;8.126;2022-11-15T02:09:39;7.70;99.90
34492;DHT22;20737;49.908;8.126;2022-11-15T02:12:07;7.70;99.90
34492;DHT22;20737;49.908;8.126;2022-11-15T02:14:36;7.70;99.90
34492;DHT22;20737;49.908;8.126;2022-11-15T02:17:15;7.60;99.90
34492;DHT22;20737;49.908;8.126;2022-11-15T02:22:58;7.70;99.90
34492;DHT22;20737;49.908;8.126;2022-11-15T02:25:42;7.70;99.90
34492;DHT22;20737;49.908;8.126;2022-11-15T02:28:35;7.80;99.90
34492;DHT22;20737;49.908;8.126;2022-11-15T02:31:11;7.80;99.90
34492;DHT22;20737;49.908;8.126;2022-11-15T02:33:44;7.80;99.90
34492;DHT22;20737;49.908;8.126;2022-11-15T02:36:21;7.70;99.90
34492;DHT22;20737;49.908;8.126;2022-11-15T02:38:54;7.60;99.90
34492;DHT22;20737;49.908;8.126;2022-11-15T02:41:30;7.50;99.90
34492;DHT22;20737;49.908;8.126;2022-11-15T02:44:01;7.50;99.90
34492;DHT22;20737;49.908;8.126;2022-11-15T02:46:33;7.30;99.90
34492;DHT22;20737;49.908;8.126;2022-11-15T02:49:19;7.30;99.90
34492;DHT22;20737;49.908;8.126;2022-11-15T02:51:47;7.30;99.90
34492;DHT22;20737;49.908;8.126;2022-11-15T02:54:19;7.20;99.90
34492;DHT22;20737;49.908;8.126;2022-11-15T02:56:47;7.20;99.90
34492;DHT22;20737;49.908;8.126;2022-11-15T02:59:42;7.30;99.90
34492;DHT22;20737;49.908;8.126;2022-11-15T03:02:24;7.30;99.90
34492;DHT22;20737;49.908;8.126;2022-11-15T03:04:57;7.40;99.90
34492;DHT22;20737;49.908;8.126;2022-11-15T03:07:28;7.50;99.90
34492;DHT22;20737;49.908;8.126;2022-11-15T03:10:02;7.70;99.90
34492;DHT22;20737;49.908;8.126;2022-11-15T03:12:37;7.80;99.90
34492;DHT22;20737;49.908;8.126;2022-11-15T03:15:11;7.90;99.90
34492;DHT22;20737;49.908;8.126;2022-11-15T03:17:46;8.00;99.90
34492;DHT22;20737;49.908;8.126;2022-11-15T03:20:16;8.00;99.90
34492;DHT22;20737;49.908;8.126;2022-11-15T03:22:44;8.10;99.90
34492;DHT22;20737;49.908;8.126;2022-11-15T03:25:18;8.10;99.90
34492;DHT22;20737;49.908;8.126;2022-11-15T03:27:50;8.00;99.90
34492;DHT22;20737;49.908;8.126;2022-11-15T03:30:19;8.00;99.90
34492;DHT22;20737;49.908;8.126;2022-11-15T03:32:50;7.90;99.90
34492;DHT22;20737;49.908;8.126;2022-11-15T03:35:21;8.00;99.90
34492;DHT22;20737;49.908;8.126;2022-11-15T03:37:53;8.10;99.90
34492;DHT22;20737;49.908;8.126;2022-11-15T03:40:25;8.10;99.90
34492;DHT22;20737;49.908;8.126;2022-11-15T03:43:00;8.20;99.90
34492;DHT22;20737;49.908;8.126;2022-11-15T03:45:33;8.20;99.90
34492;DHT22;20737;49.908;8.126;2022-11-15T03:48:09;8.30;99.90
34492;DHT22;20737;49.908;8.126;2022-11-15T03:50:37;8.40;99.90
34492;DHT22;20737;49.908;8.126;2022-11-15T03:53:04;8.40;99.90
34492;DHT22;20737;49.908;8.126;2022-11-15T03:55:32;8.50;99.90
34492;DHT22;20737;49.908;8.126;2022-11-15T03:57:59;8.50;99.90
34492;DHT22;20737;49.908;8.126;2022-11-15T04:00:27;8.60;99.90
34492;DHT22;20737;49.908;8.126;2022-11-15T04:02:54;8.60;99.90
34492;DHT22;20737;49.908;8.126;2022-11-15T04:05:22;8.60;99.90
34492;DHT22;20737;49.908;8.126;2022-11-15T04:07:49;8.70;99.90
34492;DHT22;20737;49.908;8.126;2022-11-15T04:10:16;8.70;99.90
34492;DHT22;20737;49.908;8.126;2022-11-15T04:12:44;8.70;99.90
34492;DHT22;20737;49.908;8.126;2022-11-15T04:15:14;8.80;99.90
34492;DHT22;20737;49.908;8.126;2022-11-15T04:17:43;8.80;99.90
34492;DHT22;20737;49.908;8.126;2022-11-15T04:20:13;8.90;99.90
34492;DHT22;20737;49.908;8.126;2022-11-15T04:23:00;8.90;99.90
34492;DHT22;20737;49.908;8.126;2022-11-15T04:25:45;9.00;99.90
34492;DHT22;20737;49.908;8.126;2022-11-15T04:28:12;9.00;99.90
34492;DHT22;20737;49.908;8.126;2022-11-15T04:30:39;9.00;99.90
34492;DHT22;20737;49.908;8.126;2022-11-15T04:33:06;9.00;99.90
34492;DHT22;20737;49.908;8.126;2022-11-15T04:35:32;9.00;99.90
34492;DHT22;20737;49.908;8.126;2022-11-15T04:38:02;9.10;99.90
34492;DHT22;20737;49.908;8.126;2022-11-15T04:40:28;9.10;99.90
34492;DHT22;20737;49.908;8.126;2022-11-15T04:42:55;9.10;99.90
34492;DHT22;20737;49.908;8.126;2022-11-15T04:45:22;9.10;99.90
34492;DHT22;20737;49.908;8.126;2022-11-15T04:47:48;9.10;99.90
34492;DHT22;20737;49.908;8.126;2022-11-15T04:50:16;9.20;99.90
34492;DHT22;20737;49.908;8.126;2022-11-15T04:52:48;9.20;99.90
34492;DHT22;20737;49.908;8.126;2022-11-15T04:55:17;9.20;99.90
34492;DHT22;20737;49.908;8.126;2022-11-15T04:57:44;9.20;99.90
34492;DHT22;20737;49.908;8.126;2022-11-15T05:00:13;9.20;99.90
34492;DHT22;20737;49.908;8.126;2022-11-15T05:02:40;9.20;99.90
34492;DHT22;20737;49.908;8.126;2022-11-15T05:05:25;9.20;99.90
34492;DHT22;20737;49.908;8.126;2022-11-15T05:07:53;9.30;99.90
34492;DHT22;20737;49.908;8.126;2022-11-15T05:10:21;9.30;99.90
34492;DHT22;20737;49.908;8.126;2022-11-15T05:12:48;9.30;99.90
34492;DHT22;20737;49.908;8.126;2022-11-15T05:15:16;9.30;99.90
34492;DHT22;20737;49.908;8.126;2022-11-15T05:17:43;9.30;99.90
34492;DHT22;20737;49.908;8.126;2022-11-15T05:20:10;9.30;99.90
34492;DHT22;20737;49.908;8.126;2022-11-15T05:22:37;9.30;99.90
34492;DHT22;20737;49.908;8.126;2022-11-15T05:25:05;9.40;99.90
34492;DHT22;20737;49.908;8.126;2022-11-15T05:27:34;9.40;99.90
34492;DHT22;20737;49.908;8.126;2022-11-15T05:30:02;9.40;99.90
34492;DHT22;20737;49.908;8.126;2022-11-15T05:32:29;9.50;99.90
34492;DHT22;20737;49.908;8.126;2022-11-15T05:34:56;9.50;99.90
34492;DHT22;20737;49.908;8.126;2022-11-15T05:37:23;9.50;99.90
34492;DHT22;20737;49.908;8.126;2022-11-15T05:39:49;9.40;99.90
34492;DHT22;20737;49.908;8.126;2022-11-15T05:42:16;9.40;99.90
34492;DHT22;20737;49.908;8.126;2022-11-15T05:44:48;9.40;99.90
34492;DHT22;20737;49.908;8.126;2022-11-15T05:47:18;9.40;99.90
34492;DHT22;20737;49.908;8.126;2022-11-15T05:49:47;9.40;99.90
34492;DHT22;20737;49.908;8.126;2022-11-15T05:52:17;9.40;99.90
34492;DHT22;20737;49.908;8.126;2022-11-15T05:54:46;9.40;99.90
34492;DHT22;20737;49.908;8.126;2022-11-15T05:57:13;9.40;99.90
34492;DHT22;20737;49.908;8.126;2022-11-15T05:59:40;9.40;99.90
34492;DHT22;20737;49.908;8.126;2022-11-15T06:02:10;9.40;99.90
34492;DHT22;20737;49.908;8.126;2022-11-15T06:04:37;9.40;99.90
34492;DHT22;20737;49.908;8.126;2022-11-15T06:07:04;9.40;99.90
34492;DHT22;20737;49.908;8.126;2022-11-15T06:09:30;9.40;99.90
34492;DHT22;20737;49.908;8.126;2022-11-15T06:11:57;9.40;99.90
34492;DHT22;20737;49.908;8.126;2022-11-15T06:14:24;9.30;99.90
34492;DHT22;20737;49.908;8.126;2022-11-15T06:16:51;9.30;99.90
34492;DHT22;20737;49.908;8.126;2022-11-15T06:19:19;9.30;99.90
34492;DHT22;20737;49.908;8.126;2022-11-15T06:21:45;9.20;99.90
34492;DHT22;20737;49.908;8.126;2022-11-15T06:24:12;9.20;99.90
34492;DHT22;20737;49.908;8.126;2022-11-15T06:26:39;9.10;99.90
34492;DHT22;20737;49.908;8.126;2022-11-15T06:29:06;9.00;99.90
34492;DHT22;20737;49.908;8.126;2022-11-15T06:31:33;9.00;99.90
34492;DHT22;20737;49.908;8.126;2022-11-15T06:34:00;8.90;99.90
34492;DHT22;20737;49.908;8.126;2022-11-15T06:36:28;8.90;99.90
34492;DHT22;20737;49.908;8.126;2022-11-15T06:38:56;9.00;99.90
34492;DHT22;20737;49.908;8.126;2022-11-15T06:41:23;9.10;99.90
34492;DHT22;20737;49.908;8.126;2022-11-15T06:43:49;9.10;99.90
34492;DHT22;20737;49.908;8.126;2022-11-15T06:46:16;9.10;99.90
34492;DHT22;20737;49.908;8.126;2022-11-15T06:48:43;9.20;99.90
34492;DHT22;20737;49.908;8.126;2022-11-15T06:51:10;9.20;99.90
34492;DHT22;20737;49.908;8.126;2022-11-15T06:53:38;9.20;99.90
34492;DHT22;20737;49.908;8.126;2022-11-15T06:56:06;9.20;99.90
34492;DHT22;20737;49.908;8.126;2022-11-15T06:58:33;9.20;99.90
34492;DHT22;20737;49.908;8.126;2022-11-15T07:01:01;9.10;99.90
34492;DHT22;20737;49.908;8.126;2022-11-15T07:03:29;9.10;99.90
34492;DHT22;20737;49.908;8.126;2022-11-15T07:05:57;9.10;99.90
34492;DHT22;20737;49.908;8.126;2022-11-15T07:08:24;9.10;99.90
34492;DHT22;20737;49.908;8.126;2022-11-15T07:10:55;9.20;99.90
34492;DHT22;20737;49.908;8.126;2022-11-15T07:13:24;9.20;99.90
34492;DHT22;20737;49.908;8.126;2022-11-15T07:15:52;9.30;99.90
34492;DHT22;20737;49.908;8.126;2022-11-15T07:18:18;9.30;99.90
34492;DHT22;20737;49.908;8.126;2022-11-15T07:20:45;9.30;99.90
34492;DHT22;20737;49.908;8.126;2022-11-15T07:23:12;9.40;99.90
34492;DHT22;20737;49.908;8.126;2022-11-15T07:25:39;9.40;99.90
34492;DHT22;20737;49.908;8.126;2022-11-15T07:28:07;9.40;99.90
34492;DHT22;20737;49.908;8.126;2022-11-15T07:30:34;9.40;99.90
34492;DHT22;20737;49.908;8.126;2022-11-15T07:33:01;9.50;99.90
34492;DHT22;20737;49.908;8.126;2022-11-15T07:35:29;9.50;99.90
34492;DHT22;20737;49.908;8.126;2022-11-15T07:37:57;9.60;99.90
34492;DHT22;20737;49.908;8.126;2022-11-15T07:40:25;9.70;99.90
34492;DHT22;20737;49.908;8.126;2022-11-15T07:42:52;9.80;99.90
34492;DHT22;20737;49.908;8.126;2022-11-15T07:45:24;9.90;99.90
34492;DHT22;20737;49.908;8.126;2022-11-15T07:47:52;10.00;99.90
34492;DHT22;20737;49.908;8.126;2022-11-15T07:50:19;10.00;99.90
34492;DHT22;20737;49.908;8.126;2022-11-15T07:52:46;10.00;99.90
34492;DHT22;20737;49.908;8.126;2022-11-15T07:55:13;10.00;99.90
34492;DHT22;20737;49.908;8.126;2022-11-15T07:57:40;10.00;99.90
34492;DHT22;20737;49.908;8.126;2022-11-15T08:00:08;10.10;99.90
34492;DHT22;20737;49.908;8.126;2022-11-15T08:02:36;10.10;99.90
34492;DHT22;20737;49.908;8.126;2022-11-15T08:05:03;10.10;99.90
34492;DHT22;20737;49.908;8.126;2022-11-15T08:07:30;10.10;99.90
34492;DHT22;20737;49.908;8.126;2022-11-15T08:09:57;10.20;99.90
34492;DHT22;20737;49.908;8.126;2022-11-15T08:12:26;10.20;99.90
34492;DHT22;20737;49.908;8.126;2022-11-15T08:14:54;10.20;99.90
34492;DHT22;20737;49.908;8.126;2022-11-15T08:17:20;10.30;99.90
34492;DHT22;20737;49.908;8.126;2022-11-15T08:19:48;10.40;99.90
34492;DHT22;20737;49.908;8.126;2022-11-15T08:22:15;10.50;99.90
34492;DHT22;20737;49.908;8.126;2022-11-15T08:24:42;10.50;99.90
34492;DHT22;20737;49.908;8.126;2022-11-15T08:27:09;10.60;99.90
34492;DHT22;20737;49.908;8.126;2022-11-15T08:29:41;10.70;99.90
34492;DHT22;20737;49.908;8.126;2022-11-15T08:32:08;10.90;99.90
34492;DHT22;20737;49.908;8.126;2022-11-15T08:34:35;11.00;99.90
34492;DHT22;20737;49.908;8.126;2022-11-15T08:37:03;11.10;99.90
34492;DHT22;20737;49.908;8.126;2022-11-15T08:39:30;11.20;99.90
34492;DHT22;20737;49.908;8.126;2022-11-15T08:41:56;11.30;99.90
34492;DHT22;20737;49.908;8.126;2022-11-15T08:44:23;11.40;99.90
34492;DHT22;20737;49.908;8.126;2022-11-15T08:46:50;11.40;99.90
34492;DHT22;20737;49.908;8.126;2022-11-15T08:49:17;11.50;99.90
34492;DHT22;20737;49.908;8.126;2022-11-15T08:51:44;11.50;99.90
34492;DHT22;20737;49.908;8.126;2022-11-15T08:54:12;11.60;99.90
34492;DHT22;20737;49.908;8.126;2022-11-15T08:56:40;11.50;99.90
34492;DHT22;20737;49.908;8.126;2022-11-15T08:59:07;11.40;99.90
34492;DHT22;20737;49.908;8.126;2022-11-15T09:01:34;11.50;99.90
34492;DHT22;20737;49.908;8.126;2022-11-15T09:04:00;11.50;99.90
34492;DHT22;20737;49.908;8.126;2022-11-15T09:06:27;11.60;99.90
34492;DHT22;20737;49.908;8.126;2022-11-15T09:08:54;11.70;99.90
34492;DHT22;20737;49.908;8.126;2022-11-15T09:11:22;11.70;99.90
34492;DHT22;20737;49.908;8.126;2022-11-15T09:13:49;11.80;99.90
34492;DHT22;20737;49.908;8.126;2022-11-15T09:16:15;11.80;99.90
34492;DHT22;20737;49.908;8.126;2022-11-15T09:18:42;11.90;99.90
34492;DHT22;20737;49.908;8.126;2022-11-15T09:21:10;11.90;99.90
34492;DHT22;20737;49.908;8.126;2022-11-15T09:23:37;12.00;99.90
34492;DHT22;20737;49.908;8.126;2022-11-15T09:26:04;12.10;99.90
34492;DHT22;20737;49.908;8.126;2022-11-15T09:28:33;12.20;99.90
34492;DHT22;20737;49.908;8.126;2022-11-15T09:31:02;12.20;99.90
34492;DHT22;20737;49.908;8.126;2022-11-15T09:33:29;12.30;99.90
34492;DHT22;20737;49.908;8.126;2022-11-15T09:36:00;12.40;99.90
34492;DHT22;20737;49.908;8.126;2022-11-15T09:38:27;12.40;99.90
34492;DHT22;20737;49.908;8.126;2022-11-15T09:41:13;12.50;99.90
34492;DHT22;20737;49.908;8.126;2022-11-15T09:43:49;12.50;99.90
34492;DHT22;20737;49.908;8.126;2022-11-15T09:46:27;12.50;99.90
34492;DHT22;20737;49.908;8.126;2022-11-15T09:48:57;12.50;99.90
34492;DHT22;20737;49.908;8.126;2022-11-15T09:51:29;12.50;99.90
34492;DHT22;20737;49.908;8.126;2022-11-15T09:54:01;12.50;99.90
34492;DHT22;20737;49.908;8.126;2022-11-15T09:56:31;12.50;99.90
34492;DHT22;20737;49.908;8.126;2022-11-15T09:59:12;12.50;99.90
34492;DHT22;20737;49.908;8.126;2022-11-15T10:01:47;12.50;99.90
34492;DHT22;20737;49.908;8.126;2022-11-15T10:04:16;12.60;99.90
34492;DHT22;20737;49.908;8.126;2022-11-15T10:06:49;12.60;99.90
34492;DHT22;20737;49.908;8.126;2022-11-15T10:09:21;12.70;99.90
34492;DHT22;20737;49.908;8.126;2022-11-15T10:11:50;12.70;99.90
34492;DHT22;20737;49.908;8.126;2022-11-15T10:14:21;12.80;99.90
34492;DHT22;20737;49.908;8.126;2022-11-15T10:20:03;12.90;99.90
34492;DHT22;20737;49.908;8.126;2022-11-15T10:22:37;12.90;99.90
34492;DHT22;20737;49.908;8.126;2022-11-15T10:25:20;13.00;99.90
34492;DHT22;20737;49.908;8.126;2022-11-15T10:27:54;12.90;99.90
34492;DHT22;20737;49.908;8.126;2022-11-15T10:30:24;12.90;99.90
34492;DHT22;20737;49.908;8.126;2022-11-15T10:32:56;12.90;99.90
34492;DHT22;20737;49.908;8.126;2022-11-15T10:35:25;12.90;99.90
34492;DHT22;20737;49.908;8.126;2022-11-15T10:37:52;12.90;99.90
34492;DHT22;20737;49.908;8.126;2022-11-15T10:40:30;13.00;99.90
34492;DHT22;20737;49.908;8.126;2022-11-15T10:43:05;13.20;99.90
34492;DHT22;20737;49.908;8.126;2022-11-15T10:45:33;13.50;99.90
34492;DHT22;20737;49.908;8.126;2022-11-15T10:48:22;14.10;99.90
34492;DHT22;20737;49.908;8.126;2022-11-15T10:50:50;14.70;99.90
34492;DHT22;20737;49.908;8.126;2022-11-15T10:53:22;15.20;99.90
34492;DHT22;20737;49.908;8.126;2022-11-15T10:55:52;15.40;99.90
34492;DHT22;20737;49.908;8.126;2022-11-15T10:58:22;15.40;99.90
34492;DHT22;20737;49.908;8.126;2022-11-15T11:00:54;15.40;99.90
34492;DHT22;20737;49.908;8.126;2022-11-15T11:03:28;15.30;99.90
34492;DHT22;20737;49.908;8.126;2022-11-15T11:06:04;15.30;99.90
34492;DHT22;20737;49.908;8.126;2022-11-15T11:08:31;15.10;99.90
34492;DHT22;20737;49.908;8.126;2022-11-15T11:11:00;15.10;99.90
34492;DHT22;20737;49.908;8.126;2022-11-15T11:13:29;15.00;99.90
34492;DHT22;20737;49.908;8.126;2022-11-15T11:16:05;14.80;99.90
34492;DHT22;20737;49.908;8.126;2022-11-15T11:18:40;14.60;99.90
34492;DHT22;20737;49.908;8.126;2022-11-15T11:21:14;14.50;99.90
34492;DHT22;20737;49.908;8.126;2022-11-15T11:23:48;14.50;99.90
34492;DHT22;20737;49.908;8.126;2022-11-15T11:26:40;14.50;99.90
34492;DHT22;20737;49.908;8.126;2022-11-15T11:29:20;14.40;99.90
34492;DHT22;20737;49.908;8.126;2022-11-15T11:31:56;14.20;99.90
34492;DHT22;20737;49.908;8.126;2022-11-15T11:34:36;14.10;99.90
34492;DHT22;20737;49.908;8.126;2022-11-15T11:37:11;13.90;99.90
34492;DHT22;20737;49.908;8.126;2022-11-15T11:39:46;14.00;99.90
34492;DHT22;20737;49.908;8.126;2022-11-15T11:42:22;14.00;99.90
34492;DHT22;20737;49.908;8.126;2022-11-15T11:45:00;14.20;99.90
34492;DHT22;20737;49.908;8.126;2022-11-15T11:47:32;14.40;99.90
34492;DHT22;20737;49.908;8.126;2022-11-15T11:50:11;14.50;99.90
34492;DHT22;20737;49.908;8.126;2022-11-15T11:52:44;14.70;99.90
34492;DHT22;20737;49.908;8.126;2022-11-15T11:55:18;14.80;99.90
34492;DHT22;20737;49.908;8.126;2022-11-15T11:57:49;15.00;99.90
34492;DHT22;20737;49.908;8.126;2022-11-15T12:00:19;15.00;99.90
34492;DHT22;20737;49.908;8.126;2022-11-15T12:02:55;14.90;99.90
34492;DHT22;20737;49.908;8.126;2022-11-15T12:05:30;14.80;99.90
34492;DHT22;20737;49.908;8.126;2022-11-15T12:08:03;14.60;99.90
34492;DHT22;20737;49.908;8.126;2022-11-15T12:10:33;14.50;99.90
34492;DHT22;20737;49.908;8.126;2022-11-15T12:13:03;14.40;99.90
34492;DHT22;20737;49.908;8.126;2022-11-15T12:18:02;14.30;99.90
34492;DHT22;20737;49.908;8.126;2022-11-15T12:20:32;14.20;99.90
34492;DHT22;20737;49.908;8.126;2022-11-15T12:23:05;14.10;99.90
34492;DHT22;20737;49.908;8.126;2022-11-15T12:25:41;14.10;99.90
34492;DHT22;20737;49.908;8.126;2022-11-15T12:28:14;14.00;99.90
34492;DHT22;20737;49.908;8.126;2022-11-15T12:30:46;14.00;99.90
34492;DHT22;20737;49.908;8.126;2022-11-15T12:33:34;14.00;99.90
34492;DHT22;20737;49.908;8.126;2022-11-15T12:36:04;13.90;99.90
34492;DHT22;20737;49.908;8.126;2022-11-15T12:38:54;13.90;99.90
34492;DHT22;20737;49.908;8.126;2022-11-15T12:41:22;13.90;99.90
34492;DHT22;20737;49.908;8.126;2022-11-15T12:43:50;13.90;99.90
34492;DHT22;20737;49.908;8.126;2022-11-15T12:46:22;13.90;99.90
34492;DHT22;20737;49.908;8.126;2022-11-15T12:48:54;13.80;99.90
34492;DHT22;20737;49.908;8.126;2022-11-15T13:00:42;13.70;99.90
34492;DHT22;20737;49.908;8.126;2022-11-15T13:03:19;13.80;99.90
34492;DHT22;20737;49.908;8.126;2022-11-15T13:08:53;14.10;99.90
34492;DHT22;20737;49.908;8.126;2022-11-15T13:11:42;14.10;99.90
34492;DHT22;20737;49.908;8.126;2022-11-15T13:17:25;14.20;99.90
34492;DHT22;20737;49.908;8.126;2022-11-15T13:20:07;14.10;99.90
34492;DHT22;20737;49.908;8.126;2022-11-15T13:22:40;14.10;99.90
34492;DHT22;20737;49.908;8.126;2022-11-15T13:28:22;14.00;99.90
34492;DHT22;20737;49.908;8.126;2022-11-15T13:30:51;14.00;99.90
34492;DHT22;20737;49.908;8.126;2022-11-15T13:33:21;13.90;99.90
34492;DHT22;20737;49.908;8.126;2022-11-15T13:35:50;13.70;99.90
34492;DHT22;20737;49.908;8.126;2022-11-15T13:38:26;13.60;99.90
34492;DHT22;20737;49.908;8.126;2022-11-15T13:40:55;13.50;99.90
34492;DHT22;20737;49.908;8.126;2022-11-15T13:43:29;13.40;99.90
34492;DHT22;20737;49.908;8.126;2022-11-15T13:46:10;13.40;99.90
34492;DHT22;20737;49.908;8.126;2022-11-15T13:48:37;13.40;99.90
34492;DHT22;20737;49.908;8.126;2022-11-15T13:51:08;13.30;99.90
34492;DHT22;20737;49.908;8.126;2022-11-15T13:53:38;13.30;99.90
34492;DHT22;20737;49.908;8.126;2022-11-15T13:56:08;13.20;99.90
34492;DHT22;20737;49.908;8.126;2022-11-15T13:58:37;13.10;99.90
34492;DHT22;20737;49.908;8.126;2022-11-15T14:01:05;13.00;99.90
34492;DHT22;20737;49.908;8.126;2022-11-15T14:03:38;13.00;99.90
34492;DHT22;20737;49.908;8.126;2022-11-15T14:06:12;13.00;99.90
34492;DHT22;20737;49.908;8.126;2022-11-15T14:08:42;13.00;99.90
34492;DHT22;20737;49.908;8.126;2022-11-15T14:11:13;13.00;99.90
34492;DHT22;20737;49.908;8.126;2022-11-15T14:13:41;12.90;99.90
34492;DHT22;20737;49.908;8.126;2022-11-15T14:16:19;12.80;99.90
34492;DHT22;20737;49.908;8.126;2022-11-15T14:18:48;12.80;99.90
34492;DHT22;20737;49.908;8.126;2022-11-15T14:21:16;12.70;99.90
34492;DHT22;20737;49.908;8.126;2022-11-15T14:23:43;12.80;99.90
34492;DHT22;20737;49.908;8.126;2022-11-15T14:26:28;12.80;99.90
34492;DHT22;20737;49.908;8.126;2022-11-15T14:28:55;12.70;99.90
34492;DHT22;20737;49.908;8.126;2022-11-15T14:31:22;12.80;99.90
34492;DHT22;20737;49.908;8.126;2022-11-15T14:33:49;12.80;99.90
34492;DHT22;20737;49.908;8.126;2022-11-15T14:36:17;12.80;99.90
34492;DHT22;20737;49.908;8.126;2022-11-15T14:38:45;12.80;99.90
34492;DHT22;20737;49.908;8.126;2022-11-15T14:41:18;12.80;99.90
34492;DHT22;20737;49.908;8.126;2022-11-15T14:43:47;12.90;99.90
34492;DHT22;20737;49.908;8.126;2022-11-15T14:46:14;12.80;99.90
34492;DHT22;20737;49.908;8.126;2022-11-15T14:48:41;12.90;99.90
34492;DHT22;20737;49.908;8.126;2022-11-15T14:51:12;12.90;99.90
34492;DHT22;20737;49.908;8.126;2022-11-15T14:53:39;12.90;99.90
34492;DHT22;20737;49.908;8.126;2022-11-15T14:56:06;12.80;99.90
34492;DHT22;20737;49.908;8.126;2022-11-15T14:58:33;12.70;99.90
34492;DHT22;20737;49.908;8.126;2022-11-15T15:01:02;12.70;99.90
34492;DHT22;20737;49.908;8.126;2022-11-15T15:03:29;12.70;99.90
34492;DHT22;20737;49.908;8.126;2022-11-15T15:05:56;12.70;99.90
34492;DHT22;20737;49.908;8.126;2022-11-15T15:08:22;12.60;99.90
34492;DHT22;20737;49.908;8.126;2022-11-15T15:10:49;12.60;99.90
34492;DHT22;20737;49.908;8.126;2022-11-15T15:13:18;12.60;99.90
34492;DHT22;20737;49.908;8.126;2022-11-15T15:15:46;12.50;99.90
34492;DHT22;20737;49.908;8.126;2022-11-15T15:18:15;12.50;99.90
34492;DHT22;20737;49.908;8.126;2022-11-15T15:20:43;12.40;99.90
34492;DHT22;20737;49.908;8.126;2022-11-15T15:23:15;12.30;99.90
34492;DHT22;20737;49.908;8.126;2022-11-15T15:25:42;12.30;99.90
34492;DHT22;20737;49.908;8.126;2022-11-15T15:28:11;12.30;99.90
34492;DHT22;20737;49.908;8.126;2022-11-15T15:30:37;12.30;99.90
34492;DHT22;20737;49.908;8.126;2022-11-15T15:33:04;12.30;99.90
34492;DHT22;20737;49.908;8.126;2022-11-15T15:35:34;12.30;99.90
34492;DHT22;20737;49.908;8.126;2022-11-15T15:38:01;12.30;99.90
34492;DHT22;20737;49.908;8.126;2022-11-15T15:40:30;12.20;99.90
34492;DHT22;20737;49.908;8.126;2022-11-15T15:42:57;12.20;99.90
34492;DHT22;20737;49.908;8.126;2022-11-15T15:45:25;12.20;99.90
34492;DHT22;20737;49.908;8.126;2022-11-15T15:47:53;12.20;99.90
34492;DHT22;20737;49.908;8.126;2022-11-15T15:50:24;12.20;99.90
34492;DHT22;20737;49.908;8.126;2022-11-15T15:52:55;12.20;99.90
34492;DHT22;20737;49.908;8.126;2022-11-15T15:55:23;12.20;99.90
34492;DHT22;20737;49.908;8.126;2022-11-15T15:57:50;12.10;99.90
34492;DHT22;20737;49.908;8.126;2022-11-15T16:00:18;12.10;99.90
34492;DHT22;20737;49.908;8.126;2022-11-15T16:02:45;12.00;99.90
34492;DHT22;20737;49.908;8.126;2022-11-15T16:05:12;12.00;99.90
34492;DHT22;20737;49.908;8.126;2022-11-15T16:07:39;11.90;99.90
34492;DHT22;20737;49.908;8.126;2022-11-15T16:10:22;11.90;99.90
34492;DHT22;20737;49.908;8.126;2022-11-15T16:12:50;12.00;99.90
34492;DHT22;20737;49.908;8.126;2022-11-15T16:15:18;11.90;99.90
34492;DHT22;20737;49.908;8.126;2022-11-15T16:17:48;11.90;99.90
34492;DHT22;20737;49.908;8.126;2022-11-15T16:20:27;11.90;99.90
34492;DHT22;20737;49.908;8.126;2022-11-15T16:22:55;12.00;99.90